createdAt,value
2022-12-26T00:00:31.877Z,2.84
2022-12-26T00:03:31.883Z,2.78
2022-12-26T00:06:33.859Z,2.85
2022-12-26T00:09:33.869Z,2.87
2022-12-26T00:12:33.814Z,2.86
2022-12-26T00:15:33.833Z,2.71
2022-12-26T00:18:33.856Z,2.88
2022-12-26T00:21:35.803Z,2.88
2022-12-26T00:24:35.853Z,2.89
2022-12-26T00:27:35.835Z,2.91
2022-12-26T00:30:35.836Z,2.93
2022-12-26T00:33:36.850Z,2.89
2022-12-26T00:36:39.869Z,2.89
2022-12-26T00:39:39.835Z,2.96
2022-12-26T00:42:39.844Z,2.97
2022-12-26T00:45:39.819Z,3.01
2022-12-26T00:48:39.806Z,3.03
2022-12-26T00:51:39.816Z,3.05
2022-12-26T00:54:39.801Z,2.92
2022-12-26T00:57:39.810Z,3.11
2022-12-26T01:00:39.866Z,3.11
2022-12-26T01:03:39.903Z,3.17
2022-12-26T01:06:39.795Z,3.18
2022-12-26T01:09:39.841Z,3.19
2022-12-26T01:12:39.804Z,3.19
2022-12-26T01:15:39.862Z,3.30
2022-12-26T01:18:39.796Z,3.37
2022-12-26T01:21:39.816Z,3.42
2022-12-26T01:24:40.842Z,3.47
2022-12-26T01:27:40.819Z,3.38
2022-12-26T01:30:40.851Z,3.49
2022-12-26T01:33:33.883Z,3.37
2022-12-26T01:36:33.841Z,3.59
2022-12-26T01:39:33.790Z,3.53
2022-12-26T01:42:36.853Z,3.64
2022-12-26T01:45:42.845Z,3.69
2022-12-26T01:48:43.853Z,3.72
2022-12-26T01:51:47.851Z,3.68
2022-12-26T01:54:49.801Z,3.65
2022-12-26T01:57:54.794Z,3.83
2022-12-26T02:00:54.857Z,3.80
2022-12-26T02:04:13.796Z,3.91
2022-12-26T02:07:14.844Z,4.07
2022-12-26T02:10:14.846Z,3.98
2022-12-26T02:13:14.846Z,4.17
2022-12-26T02:16:15.853Z,4.13
2022-12-26T02:19:15.812Z,4.14
2022-12-26T02:22:52.798Z,4.30
2022-12-26T02:26:07.867Z,4.30
2022-12-26T02:29:37.831Z,4.34
2022-12-26T02:32:41.841Z,4.30
2022-12-26T02:35:41.794Z,4.29
2022-12-26T02:39:45.388Z,4.24
2022-12-26T02:42:29.852Z,4.24
2022-12-26T02:45:56.854Z,4.21
2022-12-26T02:49:33.777Z,4.16
2022-12-26T02:52:58.813Z,4.13
2022-12-26T02:56:18.797Z,4.02
2022-12-26T02:59:56.314Z,4.04
2022-12-26T03:03:26.914Z,3.90
2022-12-26T03:06:57.794Z,4.01
2022-12-26T03:10:18.817Z,3.98
2022-12-26T03:13:26.811Z,3.97
2022-12-26T03:16:45.878Z,3.96
2022-12-26T03:20:04.853Z,3.96
2022-12-26T03:23:11.832Z,3.95
2022-12-26T03:26:31.815Z,3.93
2022-12-26T03:29:52.801Z,3.92
2022-12-26T03:32:56.842Z,3.88
2022-12-26T03:35:56.805Z,3.84
2022-12-26T03:40:00.827Z,3.86
2022-12-26T03:43:32.849Z,3.85
2022-12-26T03:47:13.836Z,3.81
2022-12-26T03:50:38.006Z,3.81
2022-12-26T03:54:11.803Z,3.82
2022-12-26T03:57:36.824Z,3.83
2022-12-26T04:00:56.911Z,3.84
2022-12-26T04:04:16.842Z,3.77
2022-12-26T04:07:56.524Z,3.68
2022-12-26T04:11:21.802Z,3.83
2022-12-26T04:14:44.782Z,3.82
2022-12-26T04:18:11.843Z,3.82
2022-12-26T04:22:11.821Z,3.86
2022-12-26T04:25:50.563Z,3.86
2022-12-26T04:29:08.814Z,3.86
2022-12-26T04:32:44.797Z,3.85
2022-12-26T04:36:10.813Z,3.88
2022-12-26T04:39:32.798Z,3.88
2022-12-26T04:42:51.814Z,3.87
2022-12-26T04:45:51.809Z,3.86
2022-12-26T04:49:15.821Z,3.85
2022-12-26T04:52:20.800Z,3.76
2022-12-26T04:55:20.831Z,3.73
2022-12-26T04:58:20.811Z,3.85
2022-12-26T05:01:38.865Z,3.91
2022-12-26T05:04:56.791Z,3.93
2022-12-26T05:08:15.822Z,3.94
2022-12-26T05:11:15.799Z,3.93
2022-12-26T05:14:15.838Z,3.90
2022-12-26T05:17:35.835Z,3.92
2022-12-26T05:20:53.782Z,3.88
2022-12-26T05:24:12.830Z,3.87
2022-12-26T05:27:30.799Z,3.87
2022-12-26T05:30:30.812Z,3.89
2022-12-26T05:33:49.787Z,3.91
2022-12-26T05:37:03.798Z,3.93
2022-12-26T05:40:03.780Z,3.94
2022-12-26T05:43:03.786Z,3.91
2022-12-26T05:46:03.881Z,4.02
2022-12-26T05:49:03.831Z,4.04
2022-12-26T05:52:03.806Z,4.07
2022-12-26T05:55:03.882Z,4.09
2022-12-26T05:58:03.841Z,4.13
2022-12-26T06:01:03.895Z,4.02
2022-12-26T06:04:04.842Z,4.18
2022-12-26T06:07:04.807Z,4.20
2022-12-26T06:10:04.831Z,4.22
2022-12-26T06:13:04.817Z,4.23
2022-12-26T06:16:04.857Z,4.26
2022-12-26T06:19:04.783Z,4.26
2022-12-26T06:22:04.801Z,4.29
2022-12-26T06:25:04.824Z,4.30
2022-12-26T06:28:04.836Z,4.19
2022-12-26T06:31:05.872Z,4.29
2022-12-26T06:34:10.785Z,4.27
2022-12-26T06:37:10.809Z,4.28
2022-12-26T06:40:10.811Z,4.27
2022-12-26T06:43:11.797Z,4.30
2022-12-26T06:46:12.814Z,4.30
2022-12-26T06:49:15.819Z,4.33
2022-12-26T06:52:15.783Z,4.33
2022-12-26T06:55:15.806Z,4.31
2022-12-26T06:58:16.817Z,4.34
2022-12-26T07:01:18.872Z,4.35
2022-12-26T07:04:18.805Z,4.35
2022-12-26T07:07:18.783Z,4.39
2022-12-26T07:10:18.816Z,4.39
2022-12-26T07:13:18.793Z,4.46
2022-12-26T07:16:18.866Z,4.50
2022-12-26T07:19:18.793Z,4.54
2022-12-26T07:22:18.826Z,4.50
2022-12-26T07:25:18.799Z,4.56
2022-12-26T07:28:18.797Z,4.56
2022-12-26T07:31:18.873Z,4.59
2022-12-26T07:34:18.824Z,4.60
2022-12-26T07:37:18.813Z,4.57
2022-12-26T07:40:18.841Z,4.52
2022-12-26T07:43:18.808Z,4.68
2022-12-26T07:46:18.876Z,4.72
2022-12-26T07:49:18.817Z,4.76
2022-12-26T07:52:18.830Z,4.75
2022-12-26T07:55:18.790Z,4.75
2022-12-26T07:58:18.823Z,4.76
2022-12-26T08:01:18.963Z,4.79
2022-12-26T08:04:18.765Z,4.80
2022-12-26T08:07:18.783Z,4.69
2022-12-26T08:10:18.854Z,4.84
2022-12-26T08:13:18.787Z,4.87
2022-12-26T08:16:22.823Z,4.86
2022-12-26T08:19:23.831Z,4.91
2022-12-26T08:22:23.812Z,5.05
2022-12-26T08:25:23.810Z,6.10
2022-12-26T08:28:23.827Z,7.82
2022-12-26T08:34:30.775Z,9.89
2022-12-26T08:37:30.835Z,9.76
2022-12-26T08:40:42.614Z,9.41
2022-12-26T08:44:25.220Z,9.51
2022-12-26T08:47:02.828Z,8.79
2022-12-26T08:50:02.836Z,8.14
2022-12-26T08:53:02.800Z,7.77
2022-12-26T08:56:02.815Z,7.36
2022-12-26T08:59:02.821Z,7.10
2022-12-26T09:02:02.972Z,7.13
2022-12-26T09:05:02.829Z,6.86
2022-12-26T09:08:02.796Z,6.95
2022-12-26T09:11:02.805Z,7.00
2022-12-26T09:14:02.825Z,7.83
2022-12-26T09:17:02.808Z,8.25
2022-12-26T09:20:02.787Z,8.09
2022-12-26T09:23:02.803Z,7.97
2022-12-26T09:26:02.827Z,7.73
2022-12-26T09:29:02.812Z,7.83
2022-12-26T09:32:02.813Z,7.85
2022-12-26T09:35:02.797Z,7.99
2022-12-26T09:38:02.812Z,7.88
2022-12-26T09:41:10.816Z,7.77
2022-12-26T09:44:31.808Z,7.60
2022-12-26T09:47:50.781Z,7.73
2022-12-26T09:50:52.798Z,7.95
2022-12-26T09:53:55.783Z,7.96
2022-12-26T09:57:04.669Z,7.80
2022-12-26T10:00:11.817Z,7.53
2022-12-26T10:03:14.816Z,7.43
2022-12-26T10:06:43.778Z,7.42
2022-12-26T10:09:48.784Z,7.37
2022-12-26T10:13:25.792Z,7.39
2022-12-26T10:16:30.772Z,7.42
2022-12-26T10:19:56.780Z,7.45
2022-12-26T10:23:28.781Z,7.40
2022-12-26T10:26:35.816Z,7.58
2022-12-26T10:29:39.779Z,7.49
2022-12-26T10:32:49.776Z,7.38
2022-12-26T10:35:53.790Z,7.52
2022-12-26T10:38:54.784Z,7.63
2022-12-26T10:41:57.787Z,7.87
2022-12-26T10:44:57.795Z,7.68
2022-12-26T10:47:59.824Z,7.80
2022-12-26T10:51:01.795Z,7.48
2022-12-26T10:54:03.839Z,7.50
2022-12-26T10:57:05.814Z,7.54
2022-12-26T11:00:05.852Z,7.47
2022-12-26T11:03:17.961Z,7.45
2022-12-26T11:06:18.835Z,7.54
2022-12-26T11:09:18.789Z,7.48
2022-12-26T11:12:19.783Z,7.44
2022-12-26T11:15:32.790Z,7.53
2022-12-26T11:18:52.775Z,7.31
2022-12-26T11:21:52.827Z,7.27
2022-12-26T11:24:52.769Z,7.48
2022-12-26T11:28:10.805Z,7.51
2022-12-26T11:31:10.785Z,7.59
2022-12-26T11:34:10.777Z,7.57
2022-12-26T11:37:10.777Z,7.66
2022-12-26T11:40:11.796Z,7.81
2022-12-26T11:43:13.780Z,7.79
2022-12-26T11:46:13.845Z,7.81
2022-12-26T11:49:13.800Z,7.86
2022-12-26T11:52:16.837Z,7.77
2022-12-26T11:55:36.769Z,7.72
2022-12-26T11:58:36.803Z,7.91
2022-12-26T12:01:36.904Z,7.96
2022-12-26T12:04:36.767Z,7.96
2022-12-26T12:07:53.816Z,8.01
2022-12-26T12:11:05.819Z,8.09
2022-12-26T12:14:24.781Z,8.21
2022-12-26T12:17:30.787Z,8.03
2022-12-26T12:20:59.779Z,8.02
2022-12-26T12:24:08.805Z,7.99
2022-12-26T12:27:33.814Z,7.99
2022-12-26T12:30:36.771Z,8.05
2022-12-26T12:33:54.813Z,8.09
2022-12-26T12:37:12.793Z,8.10
2022-12-26T12:40:36.823Z,8.17
2022-12-26T12:43:48.793Z,8.14
2022-12-26T12:47:10.805Z,8.25
2022-12-26T12:50:15.770Z,8.27
2022-12-26T12:53:33.776Z,8.29
2022-12-26T12:57:01.766Z,8.35
2022-12-26T13:00:09.823Z,8.37
2022-12-26T13:03:09.800Z,8.37
2022-12-26T13:06:17.786Z,8.36
2022-12-26T13:09:27.812Z,8.16
2022-12-26T13:12:41.771Z,8.30
2022-12-26T13:15:52.774Z,8.29
2022-12-26T13:19:00.817Z,8.23
2022-12-26T13:22:02.781Z,8.21
2022-12-26T13:25:07.769Z,8.21
2022-12-26T13:28:02.778Z,8.19
2022-12-26T13:30:49.850Z,8.17
2022-12-26T13:33:49.774Z,8.02
2022-12-26T13:37:07.820Z,8.13
2022-12-26T13:40:07.831Z,8.10
2022-12-26T13:43:30.821Z,8.11
2022-12-26T13:46:53.767Z,8.11
2022-12-26T13:49:54.813Z,8.08
2022-12-26T13:52:55.818Z,8.08
2022-12-26T13:55:56.793Z,8.07
2022-12-26T13:59:08.776Z,8.04
2022-12-26T14:02:32.099Z,8.04
2022-12-26T14:05:47.827Z,8.03
2022-12-26T14:08:55.211Z,8.01
2022-12-26T14:12:15.785Z,8.00
2022-12-26T14:15:41.823Z,7.96
2022-12-26T14:19:15.808Z,7.92
2022-12-26T14:22:24.805Z,7.87
2022-12-26T14:25:50.948Z,7.83
2022-12-26T14:29:06.818Z,7.81
2022-12-26T14:32:10.772Z,7.77
2022-12-26T14:35:32.825Z,7.70
2022-12-26T14:38:57.782Z,7.70
2022-12-26T14:42:37.796Z,7.66
2022-12-26T14:45:43.836Z,7.52
2022-12-26T14:48:43.787Z,7.49
2022-12-26T14:51:46.784Z,7.46
2022-12-26T14:54:53.836Z,7.49
2022-12-26T14:57:57.794Z,7.32
2022-12-26T15:00:57.782Z,7.42
2022-12-26T15:03:57.799Z,7.41
2022-12-26T15:07:28.810Z,7.42
2022-12-26T15:10:48.781Z,7.43
2022-12-26T15:13:57.839Z,7.47
2022-12-26T15:17:26.815Z,7.49
2022-12-26T15:20:35.828Z,7.48
2022-12-26T15:24:00.786Z,7.48
2022-12-26T15:27:36.823Z,7.49
2022-12-26T15:30:41.836Z,7.48
2022-12-26T15:34:08.788Z,7.48
2022-12-26T15:37:40.804Z,7.50
2022-12-26T15:41:04.827Z,7.51
2022-12-26T15:44:41.775Z,7.53
2022-12-26T15:47:56.784Z,7.54
2022-12-26T15:51:10.760Z,7.54
2022-12-26T15:54:28.806Z,7.41
2022-12-26T15:57:43.816Z,7.57
2022-12-26T16:00:50.783Z,7.58
2022-12-26T16:04:04.803Z,7.58
2022-12-26T16:07:10.777Z,7.57
2022-12-26T16:10:10.800Z,7.57
2022-12-26T16:13:31.836Z,7.58
2022-12-26T16:16:48.816Z,7.56
2022-12-26T16:19:48.823Z,7.44
2022-12-26T16:22:55.769Z,7.42
2022-12-26T16:26:03.823Z,7.44
2022-12-26T16:29:03.798Z,7.39
2022-12-26T16:32:03.767Z,7.34
2022-12-26T16:35:03.823Z,7.32
2022-12-26T16:38:04.803Z,7.30
2022-12-26T16:41:04.800Z,7.28
2022-12-26T16:44:05.808Z,7.27
2022-12-26T16:47:05.947Z,7.23
2022-12-26T16:50:06.755Z,7.20
2022-12-26T16:53:27.785Z,7.18
2022-12-26T16:56:42.750Z,7.15
2022-12-26T16:59:50.777Z,7.13
2022-12-26T17:02:51.891Z,7.11
2022-12-26T17:05:52.775Z,7.11
2022-12-26T17:09:01.800Z,7.10
2022-12-26T17:12:19.778Z,7.08
2022-12-26T17:15:20.768Z,7.08
2022-12-26T17:18:51.780Z,7.05
2022-12-26T17:21:51.794Z,7.06
2022-12-26T17:24:44.821Z,7.04
2022-12-26T17:27:44.857Z,7.04
2022-12-26T17:30:45.792Z,7.03
2022-12-26T17:33:48.198Z,6.96
2022-12-26T17:40:12.811Z,7.01
2022-12-26T17:43:24.763Z,7.01
2022-12-26T17:46:26.818Z,7.01
2022-12-26T17:49:26.816Z,6.98
2022-12-26T17:52:27.793Z,7.03
2022-12-26T17:55:31.798Z,7.02
2022-12-26T17:58:31.823Z,7.02
2022-12-26T18:01:31.829Z,7.04
2022-12-26T18:04:31.830Z,7.04
2022-12-26T18:07:34.772Z,7.03
2022-12-26T18:10:39.808Z,7.04
2022-12-26T18:13:39.815Z,7.04
2022-12-26T18:16:39.862Z,7.03
2022-12-26T18:19:39.814Z,7.01
2022-12-26T18:22:39.795Z,7.02
2022-12-26T18:25:39.787Z,7.03
2022-12-26T18:28:39.798Z,7.03
2022-12-26T18:31:39.824Z,7.04
2022-12-26T18:34:40.807Z,7.03
2022-12-26T18:37:42.825Z,7.04
2022-12-26T18:40:50.844Z,7.04
2022-12-26T18:43:50.773Z,7.02
2022-12-26T18:46:50.776Z,7.03
2022-12-26T18:49:50.853Z,7.02
2022-12-26T18:52:53.753Z,7.04
2022-12-26T18:55:53.787Z,7.07
2022-12-26T18:58:57.810Z,6.98
2022-12-26T19:01:57.796Z,7.07
2022-12-26T19:04:57.825Z,7.04
2022-12-26T19:07:57.780Z,7.08
2022-12-26T19:10:57.755Z,7.10
2022-12-26T19:13:57.792Z,7.08
2022-12-26T19:16:57.811Z,7.04
2022-12-26T19:19:57.810Z,7.10
2022-12-26T19:22:57.766Z,7.09
2022-12-26T19:25:57.751Z,7.17
2022-12-26T19:28:57.774Z,7.16
2022-12-26T19:31:57.853Z,7.19
2022-12-26T19:34:50.817Z,7.21
2022-12-26T19:37:50.806Z,7.23
2022-12-26T19:40:50.802Z,7.21
2022-12-26T19:43:50.779Z,7.29
2022-12-26T19:46:50.757Z,7.34
2022-12-26T19:50:10.821Z,7.36
2022-12-26T19:53:10.854Z,7.33
2022-12-26T19:56:10.812Z,7.40
2022-12-26T19:59:10.820Z,7.42
2022-12-26T20:02:10.904Z,7.28
2022-12-26T20:05:10.791Z,7.45
2022-12-26T20:08:10.789Z,7.48
2022-12-26T20:11:10.790Z,7.48
2022-12-26T20:14:10.764Z,7.48
2022-12-26T20:17:11.855Z,7.51
2022-12-26T20:20:11.806Z,7.51
2022-12-26T20:23:11.764Z,7.53
2022-12-26T20:26:12.803Z,7.52
2022-12-26T20:29:14.768Z,7.54
2022-12-26T20:32:14.811Z,7.54
2022-12-26T20:35:14.793Z,7.55
2022-12-26T20:38:14.799Z,7.54
2022-12-26T20:41:14.798Z,7.47
2022-12-26T20:44:14.765Z,7.58
2022-12-26T20:47:14.803Z,7.58
2022-12-26T20:50:14.772Z,7.62
2022-12-26T20:53:14.779Z,7.55
2022-12-26T20:56:14.813Z,7.61
2022-12-26T20:59:14.825Z,7.65
2022-12-26T21:02:14.961Z,7.65
2022-12-26T21:05:14.763Z,7.60
2022-12-26T21:08:14.816Z,7.63
2022-12-26T21:11:26.769Z,7.65
2022-12-26T21:14:22.770Z,7.65
2022-12-26T21:17:11.920Z,7.64
2022-12-26T21:20:11.815Z,7.66
2022-12-26T21:23:11.811Z,7.61
2022-12-26T21:26:11.813Z,7.59
2022-12-26T21:29:13.781Z,7.58
2022-12-26T21:32:14.812Z,7.56
2022-12-26T21:35:14.788Z,7.52
2022-12-26T21:38:14.789Z,7.51
2022-12-26T21:41:14.806Z,7.49
2022-12-26T21:44:14.781Z,7.46
2022-12-26T21:47:14.784Z,7.45
2022-12-26T21:50:14.754Z,7.41
2022-12-26T21:53:14.829Z,7.39
2022-12-26T21:56:20.781Z,7.32
2022-12-26T21:59:40.803Z,7.36
2022-12-26T22:03:03.904Z,7.34
2022-12-26T22:06:03.766Z,7.22
2022-12-26T22:09:03.804Z,7.31
2022-12-26T22:12:21.765Z,7.28
2022-12-26T22:15:41.809Z,7.26
2022-12-26T22:18:41.789Z,7.21
2022-12-26T22:21:41.793Z,7.19
2022-12-26T22:24:41.778Z,7.14
2022-12-26T22:27:41.786Z,7.11
2022-12-26T22:30:41.819Z,7.06
2022-12-26T22:33:41.808Z,7.03
2022-12-26T22:36:42.768Z,6.99
2022-12-26T22:39:35.839Z,6.97
2022-12-26T22:42:35.759Z,6.91
2022-12-26T22:45:35.753Z,6.81
2022-12-26T22:48:35.810Z,6.69
2022-12-26T22:51:37.805Z,6.60
2022-12-26T22:54:37.788Z,6.36
2022-12-26T22:57:37.807Z,6.40
2022-12-26T23:00:37.765Z,6.37
2022-12-26T23:03:38.815Z,6.33
2022-12-26T23:06:49.756Z,6.24
2022-12-26T23:09:49.774Z,6.27
2022-12-26T23:12:51.789Z,6.26
2022-12-26T23:16:17.841Z,6.24
2022-12-26T23:19:43.789Z,6.23
2022-12-26T23:22:43.777Z,6.20
2022-12-26T23:25:44.794Z,6.14
2022-12-26T23:29:02.822Z,6.14
2022-12-26T23:32:02.805Z,6.09
2022-12-26T23:35:02.734Z,6.12
2022-12-26T23:38:02.774Z,6.11
2022-12-26T23:41:02.766Z,6.10
2022-12-26T23:44:02.761Z,6.06
2022-12-26T23:47:02.846Z,6.10
2022-12-26T23:50:02.813Z,6.08
2022-12-26T23:53:02.755Z,6.08
2022-12-26T23:56:02.807Z,6.06
2022-12-26T23:59:02.706Z,6.08
